sensor_id;sensor_type;location;lat;lon;timestamp;pressure;altitude;pressure_sealevel;temperature;humidity
67697;BME280;54486;51.442;6.778;2023-04-09T00:01:08;102356.41;;;8.48;95.88
67697;BME280;54486;51.442;6.778;2023-04-09T00:03:37;102360.56;;;8.41;96.26
67697;BME280;54486;51.442;6.778;2023-04-09T00:06:05;102361.28;;;8.36;96.82
67697;BME280;54486;51.442;6.778;2023-04-09T00:08:32;102361.19;;;8.33;96.37
67697;BME280;54486;51.442;6.778;2023-04-09T00:10:59;102360.31;;;8.32;96.80
67697;BME280;54486;51.442;6.778;2023-04-09T00:13:26;102358.47;;;8.28;96.98
67697;BME280;54486;51.442;6.778;2023-04-09T00:16:06;102367.88;;;8.25;96.99
67697;BME280;54486;51.442;6.778;2023-04-09T00:18:33;102362.50;;;8.19;96.82
67697;BME280;54486;51.442;6.778;2023-04-09T00:21:00;102360.72;;;8.18;97.63
67697;BME280;54486;51.442;6.778;2023-04-09T00:23:27;102357.13;;;8.13;97.82
67697;BME280;54486;51.442;6.778;2023-04-09T00:25:54;102351.94;;;8.13;97.58
67697;BME280;54486;51.442;6.778;2023-04-09T00:28:22;102363.91;;;8.08;97.71
67697;BME280;54486;51.442;6.778;2023-04-09T00:30:49;102363.91;;;8.08;97.98
67697;BME280;54486;51.442;6.778;2023-04-09T00:33:16;102365.59;;;8.06;98.48
67697;BME280;54486;51.442;6.778;2023-04-09T00:35:44;102356.88;;;8.04;98.35
67697;BME280;54486;51.442;6.778;2023-04-09T00:38:11;102360.22;;;7.99;98.16
67697;BME280;54486;51.442;6.778;2023-04-09T00:40:38;102359.31;;;7.97;97.92
67697;BME280;54486;51.442;6.778;2023-04-09T00:43:05;102360.00;;;7.92;98.30
67697;BME280;54486;51.442;6.778;2023-04-09T00:45:33;102361.72;;;7.91;98.66
67697;BME280;54486;51.442;6.778;2023-04-09T00:48:00;102363.47;;;7.92;98.31
67697;BME280;54486;51.442;6.778;2023-04-09T00:50:28;102359.97;;;7.90;98.01
67697;BME280;54486;51.442;6.778;2023-04-09T00:52:55;102366.81;;;7.88;98.33
67697;BME280;54486;51.442;6.778;2023-04-09T00:55:24;102363.22;;;7.83;98.28
67697;BME280;54486;51.442;6.778;2023-04-09T00:57:51;102371.84;;;7.82;98.21
67697;BME280;54486;51.442;6.778;2023-04-09T01:00:18;102363.88;;;7.76;97.99
67697;BME280;54486;51.442;6.778;2023-04-09T01:02:46;102375.94;;;7.74;98.71
67697;BME280;54486;51.442;6.778;2023-04-09T01:05:15;102369.72;;;7.69;98.70
67697;BME280;54486;51.442;6.778;2023-04-09T01:08:07;102368.88;;;7.69;98.21
67697;BME280;54486;51.442;6.778;2023-04-09T01:10:46;102366.13;;;7.64;98.14
67697;BME280;54486;51.442;6.778;2023-04-09T01:13:23;102374.78;;;7.65;98.78
67697;BME280;54486;51.442;6.778;2023-04-09T01:15:55;102366.13;;;7.64;98.23
67697;BME280;54486;51.442;6.778;2023-04-09T01:18:35;102369.06;;;7.48;98.88
67697;BME280;54486;51.442;6.778;2023-04-09T01:21:15;102363.69;;;7.42;99.52
67697;BME280;54486;51.442;6.778;2023-04-09T01:27:03;102361.66;;;7.32;99.69
67697;BME280;54486;51.442;6.778;2023-04-09T01:29:38;102363.34;;;7.30;99.98
67697;BME280;54486;51.442;6.778;2023-04-09T01:32:08;102368.38;;;7.25;100.00
67697;BME280;54486;51.442;6.778;2023-04-09T01:34:36;102367.47;;;7.25;100.00
67697;BME280;54486;51.442;6.778;2023-04-09T01:37:05;102364.84;;;7.23;100.00
67697;BME280;54486;51.442;6.778;2023-04-09T01:39:35;102376.84;;;7.20;100.00
67697;BME280;54486;51.442;6.778;2023-04-09T01:42:04;102366.47;;;7.20;100.00
67697;BME280;54486;51.442;6.778;2023-04-09T01:44:37;102364.66;;;7.17;100.00
67697;BME280;54486;51.442;6.778;2023-04-09T01:47:07;102367.91;;;7.12;100.00
67697;BME280;54486;51.442;6.778;2023-04-09T01:49:35;102359.22;;;7.10;100.00
67697;BME280;54486;51.442;6.778;2023-04-09T01:52:02;102364.31;;;7.07;100.00
67697;BME280;54486;51.442;6.778;2023-04-09T01:54:29;102357.25;;;7.03;100.00
67697;BME280;54486;51.442;6.778;2023-04-09T01:56:57;102361.41;;;6.98;100.00
67697;BME280;54486;51.442;6.778;2023-04-09T01:59:24;102358.63;;;6.91;100.00
67697;BME280;54486;51.442;6.778;2023-04-09T02:02:06;102355.72;;;6.82;100.00
67697;BME280;54486;51.442;6.778;2023-04-09T02:04:40;102347.84;;;6.79;100.00
67697;BME280;54486;51.442;6.778;2023-04-09T02:07:26;102354.78;;;6.80;100.00
67697;BME280;54486;51.442;6.778;2023-04-09T02:09:58;102345.88;;;6.72;100.00
67697;BME280;54486;51.442;6.778;2023-04-09T02:12:28;102355.47;;;6.75;100.00
67697;BME280;54486;51.442;6.778;2023-04-09T02:14:59;102354.47;;;6.71;100.00
67697;BME280;54486;51.442;6.778;2023-04-09T02:17:27;102354.56;;;6.74;100.00
67697;BME280;54486;51.442;6.778;2023-04-09T02:19:54;102357.19;;;6.74;100.00
67697;BME280;54486;51.442;6.778;2023-04-09T02:22:22;102349.28;;;6.71;100.00
67697;BME280;54486;51.442;6.778;2023-04-09T02:24:50;102347.63;;;6.73;100.00
67697;BME280;54486;51.442;6.778;2023-04-09T02:27:17;102341.50;;;6.71;100.00
67697;BME280;54486;51.442;6.778;2023-04-09T02:29:45;102338.81;;;6.68;100.00
67697;BME280;54486;51.442;6.778;2023-04-09T02:32:11;102340.50;;;6.66;100.00
67697;BME280;54486;51.442;6.778;2023-04-09T02:34:39;102334.25;;;6.61;100.00
67697;BME280;54486;51.442;6.778;2023-04-09T02:37:06;102331.44;;;6.55;100.00
67697;BME280;54486;51.442;6.778;2023-04-09T02:39:33;102330.63;;;6.56;100.00
67697;BME280;54486;51.442;6.778;2023-04-09T02:42:00;102331.34;;;6.52;100.00
67697;BME280;54486;51.442;6.778;2023-04-09T02:44:28;102330.56;;;6.55;100.00
67697;BME280;54486;51.442;6.778;2023-04-09T02:46:55;102331.34;;;6.52;100.00
67697;BME280;54486;51.442;6.778;2023-04-09T02:49:23;102331.34;;;6.52;100.00
67697;BME280;54486;51.442;6.778;2023-04-09T02:51:50;102333.84;;;6.49;100.00
67697;BME280;54486;51.442;6.778;2023-04-09T02:54:17;102324.19;;;6.45;100.00
67697;BME280;54486;51.442;6.778;2023-04-09T02:56:44;102318.09;;;6.45;100.00
67697;BME280;54486;51.442;6.778;2023-04-09T02:59:12;102317.16;;;6.41;100.00
67697;BME280;54486;51.442;6.778;2023-04-09T03:01:40;102321.28;;;6.36;100.00
67697;BME280;54486;51.442;6.778;2023-04-09T03:04:07;102322.00;;;6.32;100.00
67697;BME280;54486;51.442;6.778;2023-04-09T03:06:34;102323.78;;;6.33;100.00
67697;BME280;54486;51.442;6.778;2023-04-09T03:09:01;102314.28;;;6.33;100.00
67697;BME280;54486;51.442;6.778;2023-04-09T03:11:29;102315.97;;;6.31;100.00
67697;BME280;54486;51.442;6.778;2023-04-09T03:13:56;102320.25;;;6.31;100.00
67697;BME280;54486;51.442;6.778;2023-04-09T03:16:24;102307.19;;;6.28;100.00
67697;BME280;54486;51.442;6.778;2023-04-09T03:18:52;102316.56;;;6.24;100.00
67697;BME280;54486;51.442;6.778;2023-04-09T03:21:20;102310.59;;;6.27;100.00
67697;BME280;54486;51.442;6.778;2023-04-09T03:23:47;102307.78;;;6.21;100.00
67697;BME280;54486;51.442;6.778;2023-04-09T03:26:14;102305.91;;;6.17;100.00
67697;BME280;54486;51.442;6.778;2023-04-09T03:28:41;102310.19;;;6.15;100.00
67697;BME280;54486;51.442;6.778;2023-04-09T03:31:09;102316.06;;;6.11;100.00
67697;BME280;54486;51.442;6.778;2023-04-09T03:33:36;102303.00;;;6.08;100.00
67697;BME280;54486;51.442;6.778;2023-04-09T03:36:03;102303.00;;;6.08;100.00
67697;BME280;54486;51.442;6.778;2023-04-09T03:38:31;102307.16;;;6.03;100.00
67697;BME280;54486;51.442;6.778;2023-04-09T03:40:57;102313.97;;;6.01;100.00
67697;BME280;54486;51.442;6.778;2023-04-09T03:43:24;102307.88;;;5.99;100.00
67697;BME280;54486;51.442;6.778;2023-04-09T03:45:52;102309.56;;;5.98;100.00
67697;BME280;54486;51.442;6.778;2023-04-09T03:48:20;102311.28;;;5.98;100.00
67697;BME280;54486;51.442;6.778;2023-04-09T03:50:47;102307.75;;;5.96;100.00
67697;BME280;54486;51.442;6.778;2023-04-09T03:53:15;102305.97;;;5.93;100.00
67697;BME280;54486;51.442;6.778;2023-04-09T03:55:42;102304.97;;;5.90;100.00
67697;BME280;54486;51.442;6.778;2023-04-09T03:58:09;102304.84;;;5.87;100.00
67697;BME280;54486;51.442;6.778;2023-04-09T04:00:37;102309.16;;;5.86;100.00
67697;BME280;54486;51.442;6.778;2023-04-09T04:03:04;102311.53;;;5.81;100.00
67697;BME280;54486;51.442;6.778;2023-04-09T04:05:32;102314.97;;;5.80;100.00
67697;BME280;54486;51.442;6.778;2023-04-09T04:07:59;102310.41;;;5.75;100.00
67697;BME280;54486;51.442;6.778;2023-04-09T04:10:27;102314.59;;;5.71;100.00
67697;BME280;54486;51.442;6.778;2023-04-09T04:12:54;102319.66;;;5.68;100.00
67697;BME280;54486;51.442;6.778;2023-04-09T04:15:21;102316.16;;;5.66;100.00
67697;BME280;54486;51.442;6.778;2023-04-09T04:17:48;102311.66;;;5.62;100.00
67697;BME280;54486;51.442;6.778;2023-04-09T04:20:15;102314.16;;;5.59;100.00
67697;BME280;54486;51.442;6.778;2023-04-09T04:22:42;102314.84;;;5.55;100.00
67697;BME280;54486;51.442;6.778;2023-04-09T04:25:09;102312.25;;;5.55;100.00
67697;BME280;54486;51.442;6.778;2023-04-09T04:27:40;102313.91;;;5.53;100.00
67697;BME280;54486;51.442;6.778;2023-04-09T04:30:08;102313.81;;;5.50;100.00
67697;BME280;54486;51.442;6.778;2023-04-09T04:32:35;102315.47;;;5.48;100.00
67697;BME280;54486;51.442;6.778;2023-04-09T04:35:03;102318.75;;;5.44;100.00
67697;BME280;54486;51.442;6.778;2023-04-09T04:37:30;102316.97;;;5.43;100.00
67697;BME280;54486;51.442;6.778;2023-04-09T04:40:00;102320.16;;;5.36;100.00
67697;BME280;54486;51.442;6.778;2023-04-09T04:42:27;102315.84;;;5.37;100.00
67697;BME280;54486;51.442;6.778;2023-04-09T04:44:55;102318.22;;;5.30;100.00
67697;BME280;54486;51.442;6.778;2023-04-09T04:47:22;102318.06;;;5.26;100.00
67697;BME280;54486;51.442;6.778;2023-04-09T04:49:49;102312.88;;;5.26;100.00
67697;BME280;54486;51.442;6.778;2023-04-09T04:52:16;102318.06;;;5.26;100.00
67697;BME280;54486;51.442;6.778;2023-04-09T04:54:43;102315.47;;;5.26;100.00
67697;BME280;54486;51.442;6.778;2023-04-09T04:57:10;102321.34;;;5.22;100.00
67697;BME280;54486;51.442;6.778;2023-04-09T04:59:38;102322.34;;;5.25;100.00
67697;BME280;54486;51.442;6.778;2023-04-09T05:02:07;102319.69;;;5.24;100.00
67697;BME280;54486;51.442;6.778;2023-04-09T05:04:34;102318.69;;;5.20;100.00
67697;BME280;54486;51.442;6.778;2023-04-09T05:07:01;102328.19;;;5.20;100.00
67697;BME280;54486;51.442;6.778;2023-04-09T05:09:28;102321.22;;;5.19;100.00
67697;BME280;54486;51.442;6.778;2023-04-09T05:11:55;102320.34;;;5.18;100.00
67697;BME280;54486;51.442;6.778;2023-04-09T05:14:22;102316.81;;;5.16;100.00
67697;BME280;54486;51.442;6.778;2023-04-09T05:16:50;102315.16;;;5.18;100.00
67697;BME280;54486;51.442;6.778;2023-04-09T05:19:18;102318.69;;;5.20;100.00
67697;BME280;54486;51.442;6.778;2023-04-09T05:21:45;102323.00;;;5.20;100.00
67697;BME280;54486;51.442;6.778;2023-04-09T05:24:13;102327.09;;;5.15;100.00
67697;BME280;54486;51.442;6.778;2023-04-09T05:26:40;102329.91;;;5.21;100.00
67697;BME280;54486;51.442;6.778;2023-04-09T05:29:07;102332.50;;;5.21;100.00
67697;BME280;54486;51.442;6.778;2023-04-09T05:31:34;102326.44;;;5.20;100.00
67697;BME280;54486;51.442;6.778;2023-04-09T05:34:01;102324.84;;;5.24;100.00
67697;BME280;54486;51.442;6.778;2023-04-09T05:36:28;102328.28;;;5.23;100.00
67697;BME280;54486;51.442;6.778;2023-04-09T05:38:55;102336.28;;;5.29;100.00
67697;BME280;54486;51.442;6.778;2023-04-09T05:41:22;102332.84;;;5.30;100.00
67697;BME280;54486;51.442;6.778;2023-04-09T05:43:49;102325.09;;;5.30;100.00
67697;BME280;54486;51.442;6.778;2023-04-09T05:46:17;102321.69;;;5.31;100.00
67697;BME280;54486;51.442;6.778;2023-04-09T05:48:44;102324.34;;;5.32;100.00
67697;BME280;54486;51.442;6.778;2023-04-09T05:51:12;102321.81;;;5.34;100.00
67697;BME280;54486;51.442;6.778;2023-04-09T05:53:41;102324.47;;;5.36;100.00
67697;BME280;54486;51.442;6.778;2023-04-09T05:56:12;102325.47;;;5.39;100.00
67697;BME280;54486;51.442;6.778;2023-04-09T05:58:40;102322.28;;;5.46;100.00
67697;BME280;54486;51.442;6.778;2023-04-09T06:01:08;102323.28;;;5.50;100.00
67697;BME280;54486;51.442;6.778;2023-04-09T06:03:36;102330.38;;;5.55;100.00
67697;BME280;54486;51.442;6.778;2023-04-09T06:06:03;102324.38;;;5.56;100.00
67697;BME280;54486;51.442;6.778;2023-04-09T06:08:31;102320.28;;;5.61;100.00
67697;BME280;54486;51.442;6.778;2023-04-09T06:10:58;102321.22;;;5.63;100.00
67697;BME280;54486;51.442;6.778;2023-04-09T06:13:25;102323.91;;;5.66;100.00
67697;BME280;54486;51.442;6.778;2023-04-09T06:15:52;102322.34;;;5.71;100.00
67697;BME280;54486;51.442;6.778;2023-04-09T06:18:20;102314.69;;;5.74;100.00
67697;BME280;54486;51.442;6.778;2023-04-09T06:20:47;102322.72;;;5.80;100.00
67697;BME280;54486;51.442;6.778;2023-04-09T06:23:15;102323.69;;;5.84;100.00
67697;BME280;54486;51.442;6.778;2023-04-09T06:25:41;102323.78;;;5.85;100.00
67697;BME280;54486;51.442;6.778;2023-04-09T06:28:09;102319.50;;;5.86;100.00
67697;BME280;54486;51.442;6.778;2023-04-09T06:30:37;102322.25;;;5.91;100.00
67697;BME280;54486;51.442;6.778;2023-04-09T06:33:04;102330.19;;;5.95;100.00
67697;BME280;54486;51.442;6.778;2023-04-09T06:35:31;102322.59;;;6.00;100.00
67697;BME280;54486;51.442;6.778;2023-04-09T06:37:59;102337.38;;;6.02;100.00
67697;BME280;54486;51.442;6.778;2023-04-09T06:40:27;102334.94;;;6.07;100.00
67697;BME280;54486;51.442;6.778;2023-04-09T06:42:54;102331.63;;;6.11;100.00
67697;BME280;54486;51.442;6.778;2023-04-09T06:45:21;102331.84;;;6.17;100.00
67697;BME280;54486;51.442;6.778;2023-04-09T06:47:48;102333.72;;;6.21;100.00
67697;BME280;54486;51.442;6.778;2023-04-09T06:50:15;102339.00;;;6.24;100.00
67697;BME280;54486;51.442;6.778;2023-04-09T06:52:43;102328.75;;;6.27;100.00
67697;BME280;54486;51.442;6.778;2023-04-09T06:55:11;102326.38;;;6.33;100.00
67697;BME280;54486;51.442;6.778;2023-04-09T06:57:38;102335.22;;;6.39;100.00
67697;BME280;54486;51.442;6.778;2023-04-09T07:00:06;102332.81;;;6.44;100.00
67697;BME280;54486;51.442;6.778;2023-04-09T07:02:33;102336.44;;;6.49;100.00
67697;BME280;54486;51.442;6.778;2023-04-09T07:05:00;102345.22;;;6.54;100.00
67697;BME280;54486;51.442;6.778;2023-04-09T07:07:27;102340.19;;;6.57;100.00
67697;BME280;54486;51.442;6.778;2023-04-09T07:09:54;102342.13;;;6.64;100.00
67697;BME280;54486;51.442;6.778;2023-04-09T07:12:32;102342.31;;;6.70;100.00
67697;BME280;54486;51.442;6.778;2023-04-09T07:15:02;102342.56;;;6.76;100.00
67697;BME280;54486;51.442;6.778;2023-04-09T07:17:30;102346.28;;;6.84;100.00
67697;BME280;54486;51.442;6.778;2023-04-09T07:19:58;102344.78;;;6.92;100.00
67697;BME280;54486;51.442;6.778;2023-04-09T07:22:27;102349.34;;;7.00;100.00
67697;BME280;54486;51.442;6.778;2023-04-09T07:24:54;102348.63;;;7.04;100.00
67697;BME280;54486;51.442;6.778;2023-04-09T07:27:24;102346.38;;;7.14;100.00
67697;BME280;54486;51.442;6.778;2023-04-09T07:29:56;102345.69;;;7.20;99.42
67697;BME280;54486;51.442;6.778;2023-04-09T07:32:25;102352.94;;;7.30;99.00
67697;BME280;54486;51.442;6.778;2023-04-09T07:34:54;102354.91;;;7.37;98.57
67697;BME280;54486;51.442;6.778;2023-04-09T07:37:24;102346.72;;;7.53;98.52
67697;BME280;54486;51.442;6.778;2023-04-09T07:39:51;102345.97;;;7.57;97.05
67697;BME280;54486;51.442;6.778;2023-04-09T07:42:18;102347.84;;;7.61;97.07
67697;BME280;54486;51.442;6.778;2023-04-09T07:44:45;102344.59;;;7.68;96.24
67697;BME280;54486;51.442;6.778;2023-04-09T07:47:13;102353.47;;;7.76;95.98
67697;BME280;54486;51.442;6.778;2023-04-09T07:49:40;102344.22;;;7.84;95.56
67697;BME280;54486;51.442;6.778;2023-04-09T07:52:08;102342.69;;;7.92;95.52
67697;BME280;54486;51.442;6.778;2023-04-09T07:54:35;102344.63;;;7.99;94.83
67697;BME280;54486;51.442;6.778;2023-04-09T07:57:02;102343.97;;;8.07;94.22
67697;BME280;54486;51.442;6.778;2023-04-09T07:59:29;102349.50;;;8.19;92.98
67697;BME280;54486;51.442;6.778;2023-04-09T08:01:58;102348.84;;;8.26;92.27
67697;BME280;54486;51.442;6.778;2023-04-09T08:04:26;102344.88;;;8.38;90.63
67697;BME280;54486;51.442;6.778;2023-04-09T08:06:53;102344.31;;;8.50;89.74
67697;BME280;54486;51.442;6.778;2023-04-09T08:09:21;102337.59;;;8.58;89.21
67697;BME280;54486;51.442;6.778;2023-04-09T08:11:49;102346.63;;;8.72;87.30
67697;BME280;54486;51.442;6.778;2023-04-09T08:14:17;102337.38;;;8.85;86.04
67697;BME280;54486;51.442;6.778;2023-04-09T08:16:45;102341.09;;;8.94;85.83
67697;BME280;54486;51.442;6.778;2023-04-09T08:19:15;102337.06;;;9.06;85.71
67697;BME280;54486;51.442;6.778;2023-04-09T08:21:43;102338.22;;;9.18;85.76
67697;BME280;54486;51.442;6.778;2023-04-09T08:24:10;102330.53;;;9.24;84.03
67697;BME280;54486;51.442;6.778;2023-04-09T08:26:38;102334.16;;;9.31;82.56
67697;BME280;54486;51.442;6.778;2023-04-09T08:29:07;102333.53;;;9.42;79.42
67697;BME280;54486;51.442;6.778;2023-04-09T08:31:34;102333.97;;;9.62;79.16
67697;BME280;54486;51.442;6.778;2023-04-09T08:34:03;102337.78;;;9.76;78.17
67697;BME280;54486;51.442;6.778;2023-04-09T08:36:30;102328.50;;;9.90;75.21
67697;BME280;54486;51.442;6.778;2023-04-09T08:38:58;102330.31;;;9.94;74.49
67697;BME280;54486;51.442;6.778;2023-04-09T08:41:27;102329.72;;;10.09;72.00
67697;BME280;54486;51.442;6.778;2023-04-09T08:43:56;102319.66;;;10.24;71.49
67697;BME280;54486;51.442;6.778;2023-04-09T08:46:26;102329.31;;;10.30;70.62
67697;BME280;54486;51.442;6.778;2023-04-09T08:48:54;102336.56;;;10.46;70.41
67697;BME280;54486;51.442;6.778;2023-04-09T08:51:23;102339.38;;;10.58;67.98
67697;BME280;54486;51.442;6.778;2023-04-09T08:53:58;102341.25;;;10.65;66.04
67697;BME280;54486;51.442;6.778;2023-04-09T08:56:30;102331.91;;;10.79;65.05
67697;BME280;54486;51.442;6.778;2023-04-09T08:58:59;102339.09;;;10.92;65.97
67697;BME280;54486;51.442;6.778;2023-04-09T09:01:28;102334.84;;;10.97;64.03
67697;BME280;54486;51.442;6.778;2023-04-09T09:03:59;102336.00;;;11.18;65.80
67697;BME280;54486;51.442;6.778;2023-04-09T09:06:28;102329.06;;;11.17;62.94
67697;BME280;54486;51.442;6.778;2023-04-09T09:11:26;102336.19;;;11.30;63.83
67697;BME280;54486;51.442;6.778;2023-04-09T09:14:04;102330.94;;;11.28;63.23
67697;BME280;54486;51.442;6.778;2023-04-09T09:17:22;102332.91;;;11.43;62.65
67697;BME280;54486;51.442;6.778;2023-04-09T09:19:31;102324.38;;;11.56;64.39
67697;BME280;54486;51.442;6.778;2023-04-09T09:22:04;102327.09;;;11.63;61.67
67697;BME280;54486;51.442;6.778;2023-04-09T09:24:32;102313.94;;;11.59;62.57
67697;BME280;54486;51.442;6.778;2023-04-09T09:27:01;102313.97;;;11.62;59.28
67697;BME280;54486;51.442;6.778;2023-04-09T09:29:28;102312.31;;;11.67;61.10
67697;BME280;54486;51.442;6.778;2023-04-09T09:31:56;102307.97;;;11.67;61.63
67697;BME280;54486;51.442;6.778;2023-04-09T09:34:24;102312.50;;;11.79;59.86
67697;BME280;54486;51.442;6.778;2023-04-09T09:36:52;102302.13;;;11.85;60.57
67697;BME280;54486;51.442;6.778;2023-04-09T09:39:19;102310.78;;;11.81;59.73
67697;BME280;54486;51.442;6.778;2023-04-09T09:42:06;102310.75;;;11.78;59.69
67697;BME280;54486;51.442;6.778;2023-04-09T09:44:34;102291.75;;;11.93;57.96
67697;BME280;54486;51.442;6.778;2023-04-09T09:47:02;102302.25;;;11.97;57.04
67697;BME280;54486;51.442;6.778;2023-04-09T09:49:31;102311.06;;;12.05;57.72
67697;BME280;54486;51.442;6.778;2023-04-09T09:51:59;102302.34;;;12.06;56.82
67697;BME280;54486;51.442;6.778;2023-04-09T09:54:33;102299.75;;;12.09;58.12
67697;BME280;54486;51.442;6.778;2023-04-09T09:57:06;102291.94;;;12.12;57.43
67697;BME280;54486;51.442;6.778;2023-04-09T09:59:47;102302.56;;;12.25;57.89
67697;BME280;54486;51.442;6.778;2023-04-09T10:02:22;102288.66;;;12.32;57.08
67697;BME280;54486;51.442;6.778;2023-04-09T10:04:50;102294.03;;;12.44;54.12
67697;BME280;54486;51.442;6.778;2023-04-09T10:07:21;102289.75;;;12.55;53.94
67697;BME280;54486;51.442;6.778;2023-04-09T10:09:50;102294.13;;;12.56;55.26
67697;BME280;54486;51.442;6.778;2023-04-09T10:12:20;102287.16;;;12.61;54.30
67697;BME280;54486;51.442;6.778;2023-04-09T10:14:51;102274.09;;;12.59;53.53
67697;BME280;54486;51.442;6.778;2023-04-09T10:17:22;102278.44;;;12.59;55.21
67697;BME280;54486;51.442;6.778;2023-04-09T10:19:58;102281.16;;;12.69;54.30
67697;BME280;54486;51.442;6.778;2023-04-09T10:22:28;102269.78;;;12.69;55.80
67697;BME280;54486;51.442;6.778;2023-04-09T10:24:57;102273.41;;;12.86;53.30
67697;BME280;54486;51.442;6.778;2023-04-09T10:27:25;102270.84;;;12.94;53.75
67697;BME280;54486;51.442;6.778;2023-04-09T10:29:56;102275.19;;;12.93;55.03
67697;BME280;54486;51.442;6.778;2023-04-09T10:32:23;102277.00;;;13.00;53.49
67697;BME280;54486;51.442;6.778;2023-04-09T10:34:56;102277.88;;;13.02;51.02
67697;BME280;54486;51.442;6.778;2023-04-09T10:37:26;102276.16;;;13.06;53.88
67697;BME280;54486;51.442;6.778;2023-04-09T10:39:54;102266.53;;;13.00;52.55
67697;BME280;54486;51.442;6.778;2023-04-09T10:42:29;102270.00;;;12.99;53.67
67697;BME280;54486;51.442;6.778;2023-04-09T10:47:34;102250.97;;;13.23;51.44
67697;BME280;54486;51.442;6.778;2023-04-09T10:50:23;102252.78;;;13.33;51.79
67697;BME280;54486;51.442;6.778;2023-04-09T10:52:55;102252.78;;;13.41;50.94
67697;BME280;54486;51.442;6.778;2023-04-09T10:55:34;102252.81;;;13.47;51.01
67697;BME280;54486;51.442;6.778;2023-04-09T10:58:07;102247.66;;;13.59;51.25
67697;BME280;54486;51.442;6.778;2023-04-09T11:00:43;102254.72;;;13.78;51.12
67697;BME280;54486;51.442;6.778;2023-04-09T11:03:25;102251.19;;;13.82;51.15
67697;BME280;54486;51.442;6.778;2023-04-09T11:06:05;102254.69;;;13.75;51.21
67697;BME280;54486;51.442;6.778;2023-04-09T11:08:35;102251.19;;;13.76;49.86
67697;BME280;54486;51.442;6.778;2023-04-09T11:11:04;102247.72;;;13.80;51.26
67697;BME280;54486;51.442;6.778;2023-04-09T11:13:31;102237.22;;;13.83;48.69
67697;BME280;54486;51.442;6.778;2023-04-09T11:15:59;102244.25;;;13.96;51.04
67697;BME280;54486;51.442;6.778;2023-04-09T11:18:29;102235.53;;;14.03;50.20
67697;BME280;54486;51.442;6.778;2023-04-09T11:21:00;102233.75;;;14.05;50.56
67697;BME280;54486;51.442;6.778;2023-04-09T11:23:30;102226.81;;;14.19;49.44
67697;BME280;54486;51.442;6.778;2023-04-09T11:25:58;102223.31;;;14.32;47.81
67697;BME280;54486;51.442;6.778;2023-04-09T11:28:26;102221.56;;;14.44;48.81
67697;BME280;54486;51.442;6.778;2023-04-09T11:30:53;102226.81;;;14.47;48.64
67697;BME280;54486;51.442;6.778;2023-04-09T11:33:20;102214.56;;;14.46;48.29
67697;BME280;54486;51.442;6.778;2023-04-09T11:35:48;102209.34;;;14.55;48.99
67697;BME280;54486;51.442;6.778;2023-04-09T11:38:14;102200.53;;;14.77;47.43
67697;BME280;54486;51.442;6.778;2023-04-09T11:40:44;102210.13;;;14.92;48.02
67697;BME280;54486;51.442;6.778;2023-04-09T11:43:16;102216.22;;;15.04;46.14
67697;BME280;54486;51.442;6.778;2023-04-09T11:45:44;102210.09;;;15.08;46.91
67697;BME280;54486;51.442;6.778;2023-04-09T11:48:15;102203.94;;;15.06;46.86
67697;BME280;54486;51.442;6.778;2023-04-09T11:50:47;102210.94;;;15.16;46.83
67697;BME280;54486;51.442;6.778;2023-04-09T11:53:19;102207.41;;;15.23;47.41
67697;BME280;54486;51.442;6.778;2023-04-09T11:55:49;102202.13;;;15.29;47.12
67697;BME280;54486;51.442;6.778;2023-04-09T11:58:17;102208.25;;;15.25;44.19
67697;BME280;54486;51.442;6.778;2023-04-09T12:00:51;102204.75;;;15.29;45.18
67697;BME280;54486;51.442;6.778;2023-04-09T12:03:26;102198.59;;;15.36;45.87
67697;BME280;54486;51.442;6.778;2023-04-09T12:05:54;102207.34;;;15.51;45.10
67697;BME280;54486;51.442;6.778;2023-04-09T12:08:22;102202.06;;;15.38;45.45
67697;BME280;54486;51.442;6.778;2023-04-09T12:10:51;102195.94;;;15.44;46.74
67697;BME280;54486;51.442;6.778;2023-04-09T12:13:20;102195.94;;;15.44;45.85
67697;BME280;54486;51.442;6.778;2023-04-09T12:15:48;102195.06;;;15.50;46.11
67697;BME280;54486;51.442;6.778;2023-04-09T12:18:15;102195.84;;;15.65;46.21
67697;BME280;54486;51.442;6.778;2023-04-09T12:20:45;102195.75;;;15.82;45.13
67697;BME280;54486;51.442;6.778;2023-04-09T12:23:13;102203.34;;;16.21;46.00
67697;BME280;54486;51.442;6.778;2023-04-09T12:25:42;102196.34;;;16.22;44.83
67697;BME280;54486;51.442;6.778;2023-04-09T12:28:12;102187.56;;;16.18;44.69
67697;BME280;54486;51.442;6.778;2023-04-09T12:30:42;102193.72;;;16.20;44.48
67697;BME280;54486;51.442;6.778;2023-04-09T12:33:09;102189.38;;;16.16;45.09
67697;BME280;54486;51.442;6.778;2023-04-09T12:35:37;102197.16;;;16.30;44.51
67697;BME280;54486;51.442;6.778;2023-04-09T12:38:05;102190.03;;;16.41;44.08
67697;BME280;54486;51.442;6.778;2023-04-09T12:40:33;102191.81;;;16.37;44.10
67697;BME280;54486;51.442;6.778;2023-04-09T12:43:01;102198.06;;;16.24;44.62
67697;BME280;54486;51.442;6.778;2023-04-09T12:45:29;102184.03;;;16.27;44.74
67697;BME280;54486;51.442;6.778;2023-04-09T12:47:57;102187.38;;;16.46;44.18
67697;BME280;54486;51.442;6.778;2023-04-09T12:50:24;102184.63;;;16.62;43.51
67697;BME280;54486;51.442;6.778;2023-04-09T12:52:52;102193.91;;;16.95;44.46
67697;BME280;54486;51.442;6.778;2023-04-09T12:55:18;102188.47;;;17.10;42.37
67697;BME280;54486;51.442;6.778;2023-04-09T12:57:45;102190.03;;;17.26;42.01
67697;BME280;54486;51.442;6.778;2023-04-09T13:00:15;102190.84;;;17.31;42.22
67697;BME280;54486;51.442;6.778;2023-04-09T13:02:42;102188.88;;;17.45;42.13
67697;BME280;54486;51.442;6.778;2023-04-09T13:05:09;102186.53;;;17.24;41.54
67697;BME280;54486;51.442;6.778;2023-04-09T13:07:37;102169.16;;;17.08;41.03
67697;BME280;54486;51.442;6.778;2023-04-09T13:10:09;102175.84;;;17.33;41.22